sensor_id;sensor_type;location;lat;lon;timestamp;pressure;altitude;pressure_sealevel;temperature;humidity
54144;BME280;40050;47.324;18.792;2023-02-10T00:00:54;1025.48;;;-4.09;62.83
54144;BME280;40050;47.324;18.792;2023-02-10T00:02:57;1025.60;;;-4.03;63.00
54144;BME280;40050;47.324;18.792;2023-02-10T00:04:59;1025.63;;;-4.04;63.05
54144;BME280;40050;47.324;18.792;2023-02-10T00:07:01;1025.58;;;-4.06;63.04
54144;BME280;40050;47.324;18.792;2023-02-10T00:09:04;1025.61;;;-4.06;63.13
54144;BME280;40050;47.324;18.792;2023-02-10T00:11:10;1025.63;;;-4.04;63.14
54144;BME280;40050;47.324;18.792;2023-02-10T00:13:12;1025.62;;;-4.11;62.93
54144;BME280;40050;47.324;18.792;2023-02-10T00:15:15;1025.53;;;-4.17;62.86
54144;BME280;40050;47.324;18.792;2023-02-10T00:17:17;1025.62;;;-4.15;62.97
54144;BME280;40050;47.324;18.792;2023-02-10T00:19:20;1025.65;;;-4.15;63.15
54144;BME280;40050;47.324;18.792;2023-02-10T00:21:23;1025.59;;;-4.21;63.20
54144;BME280;40050;47.324;18.792;2023-02-10T00:23:26;1025.62;;;-4.22;63.36
54144;BME280;40050;47.324;18.792;2023-02-10T00:25:28;1025.69;;;-4.19;63.39
54144;BME280;40050;47.324;18.792;2023-02-10T00:27:31;1025.72;;;-4.17;63.47
54144;BME280;40050;47.324;18.792;2023-02-10T00:29:33;1025.64;;;-4.20;63.44
54144;BME280;40050;47.324;18.792;2023-02-10T00:31:35;1025.55;;;-4.28;63.30
54144;BME280;40050;47.324;18.792;2023-02-10T00:33:38;1025.64;;;-4.21;63.23
54144;BME280;40050;47.324;18.792;2023-02-10T00:35:40;1025.67;;;-4.23;63.26
54144;BME280;40050;47.324;18.792;2023-02-10T00:37:43;1025.59;;;-4.26;63.20
54144;BME280;40050;47.324;18.792;2023-02-10T00:39:45;1025.54;;;-4.26;63.31
54144;BME280;40050;47.324;18.792;2023-02-10T00:41:48;1025.63;;;-4.25;63.23
54144;BME280;40050;47.324;18.792;2023-02-10T00:43:51;1025.60;;;-4.27;63.28
54144;BME280;40050;47.324;18.792;2023-02-10T00:45:53;1025.60;;;-4.28;63.24
54144;BME280;40050;47.324;18.792;2023-02-10T00:47:56;1025.63;;;-4.24;63.26
54144;BME280;40050;47.324;18.792;2023-02-10T00:49:58;1025.61;;;-4.24;63.34
54144;BME280;40050;47.324;18.792;2023-02-10T00:52:01;1025.65;;;-4.21;63.26
54144;BME280;40050;47.324;18.792;2023-02-10T00:54:03;1025.68;;;-4.23;63.09
54144;BME280;40050;47.324;18.792;2023-02-10T00:56:06;1025.68;;;-4.26;62.89
54144;BME280;40050;47.324;18.792;2023-02-10T00:58:08;1025.67;;;-4.29;62.74
54144;BME280;40050;47.324;18.792;2023-02-10T01:00:11;1025.64;;;-4.34;62.62
54144;BME280;40050;47.324;18.792;2023-02-10T01:02:14;1025.65;;;-4.36;62.67
54144;BME280;40050;47.324;18.792;2023-02-10T01:04:16;1025.61;;;-4.36;62.71
54144;BME280;40050;47.324;18.792;2023-02-10T01:06:19;1025.61;;;-4.36;62.75
54144;BME280;40050;47.324;18.792;2023-02-10T01:08:22;1025.62;;;-4.35;62.78
54144;BME280;40050;47.324;18.792;2023-02-10T01:10:24;1025.58;;;-4.33;62.78
54144;BME280;40050;47.324;18.792;2023-02-10T01:12:27;1025.56;;;-4.35;62.63
54144;BME280;40050;47.324;18.792;2023-02-10T01:14:29;1025.51;;;-4.41;62.42
54144;BME280;40050;47.324;18.792;2023-02-10T01:16:32;1025.41;;;-4.45;62.27
54144;BME280;40050;47.324;18.792;2023-02-10T01:18:34;1025.43;;;-4.49;62.29
54144;BME280;40050;47.324;18.792;2023-02-10T01:20:38;1025.39;;;-4.52;62.45
54144;BME280;40050;47.324;18.792;2023-02-10T01:22:40;1025.44;;;-4.56;62.55
54144;BME280;40050;47.324;18.792;2023-02-10T01:24:42;1025.40;;;-4.58;62.60
54144;BME280;40050;47.324;18.792;2023-02-10T01:26:45;1025.42;;;-4.56;62.73
54144;BME280;40050;47.324;18.792;2023-02-10T01:28:47;1025.36;;;-4.58;62.85
54144;BME280;40050;47.324;18.792;2023-02-10T01:30:50;1025.34;;;-4.60;62.86
54144;BME280;40050;47.324;18.792;2023-02-10T01:32:53;1025.32;;;-4.62;62.73
54144;BME280;40050;47.324;18.792;2023-02-10T01:34:55;1025.32;;;-4.63;62.65
54144;BME280;40050;47.324;18.792;2023-02-10T01:36:58;1025.35;;;-4.66;62.79
54144;BME280;40050;47.324;18.792;2023-02-10T01:39:00;1025.24;;;-4.72;62.95
54144;BME280;40050;47.324;18.792;2023-02-10T01:41:03;1025.26;;;-4.66;63.00
54144;BME280;40050;47.324;18.792;2023-02-10T01:43:13;1025.33;;;-4.66;63.03
54144;BME280;40050;47.324;18.792;2023-02-10T01:45:19;1025.26;;;-4.71;63.05
54144;BME280;40050;47.324;18.792;2023-02-10T01:47:22;1025.28;;;-4.70;63.00
54144;BME280;40050;47.324;18.792;2023-02-10T01:49:26;1025.27;;;-4.73;62.92
54144;BME280;40050;47.324;18.792;2023-02-10T01:51:38;1025.27;;;-4.75;62.85
54144;BME280;40050;47.324;18.792;2023-02-10T01:53:43;1025.29;;;-4.77;62.93
54144;BME280;40050;47.324;18.792;2023-02-10T01:55:46;1025.23;;;-4.82;62.89
54144;BME280;40050;47.324;18.792;2023-02-10T01:57:51;1025.26;;;-4.83;62.94
54144;BME280;40050;47.324;18.792;2023-02-10T01:59:54;1025.24;;;-4.84;63.03
54144;BME280;40050;47.324;18.792;2023-02-10T02:01:57;1025.18;;;-4.86;63.07
54144;BME280;40050;47.324;18.792;2023-02-10T02:04:00;1025.18;;;-4.84;63.08
54144;BME280;40050;47.324;18.792;2023-02-10T02:06:04;1025.16;;;-4.87;63.12
54144;BME280;40050;47.324;18.792;2023-02-10T02:08:07;1025.27;;;-4.82;62.99
54144;BME280;40050;47.324;18.792;2023-02-10T02:10:10;1025.26;;;-4.87;62.94
54144;BME280;40050;47.324;18.792;2023-02-10T02:12:18;1025.23;;;-4.96;62.93
54144;BME280;40050;47.324;18.792;2023-02-10T02:14:34;1025.30;;;-4.99;62.89
54144;BME280;40050;47.324;18.792;2023-02-10T02:19:02;1025.24;;;-5.09;62.99
54144;BME280;40050;47.324;18.792;2023-02-10T02:23:49;1025.18;;;-5.14;63.30
54144;BME280;40050;47.324;18.792;2023-02-10T02:26:03;1025.03;;;-5.22;63.52
54144;BME280;40050;47.324;18.792;2023-02-10T02:28:16;1025.22;;;-5.14;63.70
54144;BME280;40050;47.324;18.792;2023-02-10T02:32:49;1025.26;;;-5.13;63.99
54144;BME280;40050;47.324;18.792;2023-02-10T02:35:02;1025.20;;;-5.13;64.04
54144;BME280;40050;47.324;18.792;2023-02-10T02:39:26;1025.10;;;-5.17;64.04
54144;BME280;40050;47.324;18.792;2023-02-10T02:41:29;1025.12;;;-5.20;63.98
54144;BME280;40050;47.324;18.792;2023-02-10T02:43:31;1025.15;;;-5.19;63.96
54144;BME280;40050;47.324;18.792;2023-02-10T02:47:58;1025.13;;;-5.25;64.09
54144;BME280;40050;47.324;18.792;2023-02-10T02:52:45;1025.16;;;-5.26;64.19
54144;BME280;40050;47.324;18.792;2023-02-10T02:55:00;1025.11;;;-5.25;63.93
54144;BME280;40050;47.324;18.792;2023-02-10T02:57:15;1025.13;;;-5.32;63.76
54144;BME280;40050;47.324;18.792;2023-02-10T03:01:37;1025.19;;;-5.38;63.33
54144;BME280;40050;47.324;18.792;2023-02-10T03:03:42;1025.22;;;-5.38;63.50
54144;BME280;40050;47.324;18.792;2023-02-10T03:05:44;1025.16;;;-5.39;63.64
54144;BME280;40050;47.324;18.792;2023-02-10T03:07:47;1024.90;;;-5.53;63.71
54144;BME280;40050;47.324;18.792;2023-02-10T03:09:49;1025.07;;;-5.42;63.73
54144;BME280;40050;47.324;18.792;2023-02-10T03:11:52;1025.15;;;-5.39;63.76
54144;BME280;40050;47.324;18.792;2023-02-10T03:13:54;1025.17;;;-5.41;63.79
54144;BME280;40050;47.324;18.792;2023-02-10T03:15:58;1025.21;;;-5.39;63.56
54144;BME280;40050;47.324;18.792;2023-02-10T03:18:00;1025.25;;;-5.42;63.40
54144;BME280;40050;47.324;18.792;2023-02-10T03:20:03;1025.24;;;-5.46;63.33
54144;BME280;40050;47.324;18.792;2023-02-10T03:22:05;1025.23;;;-5.46;63.19
54144;BME280;40050;47.324;18.792;2023-02-10T03:24:08;1025.27;;;-5.49;63.27
54144;BME280;40050;47.324;18.792;2023-02-10T03:26:10;1025.27;;;-5.49;63.36
54144;BME280;40050;47.324;18.792;2023-02-10T03:28:13;1025.27;;;-5.50;63.55
54144;BME280;40050;47.324;18.792;2023-02-10T03:30:15;1025.31;;;-5.47;63.51
54144;BME280;40050;47.324;18.792;2023-02-10T03:32:18;1025.20;;;-5.52;63.36
54144;BME280;40050;47.324;18.792;2023-02-10T03:34:21;1025.30;;;-5.50;63.40
54144;BME280;40050;47.324;18.792;2023-02-10T03:36:23;1025.33;;;-5.52;63.56
54144;BME280;40050;47.324;18.792;2023-02-10T03:38:26;1025.14;;;-5.62;63.58
54144;BME280;40050;47.324;18.792;2023-02-10T03:40:29;1025.24;;;-5.54;63.59
54144;BME280;40050;47.324;18.792;2023-02-10T03:42:31;1025.23;;;-5.56;63.61
54144;BME280;40050;47.324;18.792;2023-02-10T03:44:33;1025.26;;;-5.55;63.63
54144;BME280;40050;47.324;18.792;2023-02-10T03:46:36;1025.19;;;-5.58;63.66
54144;BME280;40050;47.324;18.792;2023-02-10T03:48:38;1025.18;;;-5.58;63.68
54144;BME280;40050;47.324;18.792;2023-02-10T03:50:41;1025.20;;;-5.58;63.76
54144;BME280;40050;47.324;18.792;2023-02-10T03:52:43;1025.20;;;-5.58;63.87
54144;BME280;40050;47.324;18.792;2023-02-10T03:54:46;1025.24;;;-5.59;63.77
54144;BME280;40050;47.324;18.792;2023-02-10T03:56:48;1025.22;;;-5.60;63.53
54144;BME280;40050;47.324;18.792;2023-02-10T03:58:51;1025.20;;;-5.59;63.28
54144;BME280;40050;47.324;18.792;2023-02-10T04:00:53;1025.17;;;-5.62;63.20
54144;BME280;40050;47.324;18.792;2023-02-10T04:02:56;1025.15;;;-5.65;63.00
54144;BME280;40050;47.324;18.792;2023-02-10T04:04:59;1025.06;;;-5.70;62.95
54144;BME280;40050;47.324;18.792;2023-02-10T04:07:02;1025.03;;;-5.69;62.97
54144;BME280;40050;47.324;18.792;2023-02-10T04:09:04;1025.08;;;-5.66;62.99
54144;BME280;40050;47.324;18.792;2023-02-10T04:11:07;1025.03;;;-5.71;62.92
54144;BME280;40050;47.324;18.792;2023-02-10T04:13:09;1025.04;;;-5.71;62.96
54144;BME280;40050;47.324;18.792;2023-02-10T04:15:11;1024.89;;;-5.76;63.12
54144;BME280;40050;47.324;18.792;2023-02-10T04:17:14;1024.84;;;-5.79;63.27
54144;BME280;40050;47.324;18.792;2023-02-10T04:19:16;1024.86;;;-5.80;63.25
54144;BME280;40050;47.324;18.792;2023-02-10T04:21:19;1024.81;;;-5.86;63.25
54144;BME280;40050;47.324;18.792;2023-02-10T04:23:22;1024.83;;;-5.87;63.33
54144;BME280;40050;47.324;18.792;2023-02-10T04:25:24;1024.87;;;-5.84;63.38
54144;BME280;40050;47.324;18.792;2023-02-10T04:27:27;1024.89;;;-5.85;63.40
54144;BME280;40050;47.324;18.792;2023-02-10T04:29:29;1024.89;;;-5.86;63.23
54144;BME280;40050;47.324;18.792;2023-02-10T04:31:32;1024.88;;;-5.88;63.03
54144;BME280;40050;47.324;18.792;2023-02-10T04:33:34;1024.87;;;-5.93;62.84
54144;BME280;40050;47.324;18.792;2023-02-10T04:35:37;1025.01;;;-5.92;62.73
54144;BME280;40050;47.324;18.792;2023-02-10T04:37:39;1024.99;;;-5.95;62.66
54144;BME280;40050;47.324;18.792;2023-02-10T04:39:41;1024.96;;;-5.98;62.79
54144;BME280;40050;47.324;18.792;2023-02-10T04:41:44;1024.90;;;-6.04;63.03
54144;BME280;40050;47.324;18.792;2023-02-10T04:43:46;1024.96;;;-6.03;63.22
54144;BME280;40050;47.324;18.792;2023-02-10T04:45:49;1024.95;;;-6.02;63.36
54144;BME280;40050;47.324;18.792;2023-02-10T04:47:51;1024.98;;;-6.01;63.38
54144;BME280;40050;47.324;18.792;2023-02-10T04:49:54;1025.01;;;-6.02;63.25
54144;BME280;40050;47.324;18.792;2023-02-10T04:51:56;1025.06;;;-6.03;63.22
54144;BME280;40050;47.324;18.792;2023-02-10T04:53:58;1025.06;;;-6.07;63.23
54144;BME280;40050;47.324;18.792;2023-02-10T04:56:01;1025.03;;;-6.10;63.17
54144;BME280;40050;47.324;18.792;2023-02-10T04:58:04;1025.05;;;-6.15;63.13
54144;BME280;40050;47.324;18.792;2023-02-10T05:00:06;1025.19;;;-6.12;63.13
54144;BME280;40050;47.324;18.792;2023-02-10T05:02:09;1025.19;;;-6.16;63.18
54144;BME280;40050;47.324;18.792;2023-02-10T05:04:11;1025.23;;;-6.19;63.25
54144;BME280;40050;47.324;18.792;2023-02-10T05:06:14;1025.31;;;-6.20;63.23
54144;BME280;40050;47.324;18.792;2023-02-10T05:08:17;1025.37;;;-6.15;63.25
54144;BME280;40050;47.324;18.792;2023-02-10T05:10:19;1025.42;;;-6.17;63.30
54144;BME280;40050;47.324;18.792;2023-02-10T05:12:22;1025.41;;;-6.22;63.39
54144;BME280;40050;47.324;18.792;2023-02-10T05:14:24;1025.50;;;-6.23;63.56
54144;BME280;40050;47.324;18.792;2023-02-10T05:16:27;1025.38;;;-6.30;63.74
54144;BME280;40050;47.324;18.792;2023-02-10T05:18:29;1025.59;;;-6.21;63.91
54144;BME280;40050;47.324;18.792;2023-02-10T05:20:32;1025.55;;;-6.22;63.83
54144;BME280;40050;47.324;18.792;2023-02-10T05:22:35;1025.63;;;-6.21;63.85
54144;BME280;40050;47.324;18.792;2023-02-10T05:24:38;1025.66;;;-6.23;63.94
54144;BME280;40050;47.324;18.792;2023-02-10T05:26:40;1025.58;;;-6.15;63.93
54144;BME280;40050;47.324;18.792;2023-02-10T05:28:43;1025.63;;;-6.18;64.09
54144;BME280;40050;47.324;18.792;2023-02-10T05:30:46;1025.60;;;-6.24;64.45
54144;BME280;40050;47.324;18.792;2023-02-10T05:32:48;1025.58;;;-6.27;64.68
54144;BME280;40050;47.324;18.792;2023-02-10T05:34:51;1025.65;;;-6.23;64.69
54144;BME280;40050;47.324;18.792;2023-02-10T05:36:53;1025.64;;;-6.20;64.71
54144;BME280;40050;47.324;18.792;2023-02-10T05:38:56;1025.56;;;-6.25;64.75
54144;BME280;40050;47.324;18.792;2023-02-10T05:40:58;1025.52;;;-6.27;64.85
54144;BME280;40050;47.324;18.792;2023-02-10T05:43:01;1025.57;;;-6.23;64.90
54144;BME280;40050;47.324;18.792;2023-02-10T05:45:03;1025.59;;;-6.25;64.88
54144;BME280;40050;47.324;18.792;2023-02-10T05:47:06;1025.69;;;-6.22;64.90
54144;BME280;40050;47.324;18.792;2023-02-10T05:49:08;1025.68;;;-6.21;64.99
54144;BME280;40050;47.324;18.792;2023-02-10T05:51:11;1025.79;;;-6.17;64.98
54144;BME280;40050;47.324;18.792;2023-02-10T05:53:13;1025.77;;;-6.14;64.52
54144;BME280;40050;47.324;18.792;2023-02-10T05:55:16;1025.74;;;-6.16;63.86
54144;BME280;40050;47.324;18.792;2023-02-10T05:57:18;1025.72;;;-6.22;63.55
54144;BME280;40050;47.324;18.792;2023-02-10T05:59:21;1025.72;;;-6.26;63.42
54144;BME280;40050;47.324;18.792;2023-02-10T06:01:23;1025.68;;;-6.31;63.46
54144;BME280;40050;47.324;18.792;2023-02-10T06:03:26;1025.77;;;-6.29;63.69
54144;BME280;40050;47.324;18.792;2023-02-10T06:05:28;1025.75;;;-6.30;63.83
54144;BME280;40050;47.324;18.792;2023-02-10T06:07:31;1025.77;;;-6.27;63.64
54144;BME280;40050;47.324;18.792;2023-02-10T06:09:33;1025.69;;;-6.33;63.51
54144;BME280;40050;47.324;18.792;2023-02-10T06:11:36;1025.76;;;-6.28;63.64
54144;BME280;40050;47.324;18.792;2023-02-10T06:13:38;1025.80;;;-6.28;63.83
54144;BME280;40050;47.324;18.792;2023-02-10T06:15:40;1025.77;;;-6.29;63.85
54144;BME280;40050;47.324;18.792;2023-02-10T06:17:43;1025.74;;;-6.30;63.87
54144;BME280;40050;47.324;18.792;2023-02-10T06:19:46;1025.78;;;-6.25;63.93
54144;BME280;40050;47.324;18.792;2023-02-10T06:21:48;1025.77;;;-6.27;63.91
54144;BME280;40050;47.324;18.792;2023-02-10T06:23:51;1025.79;;;-6.34;63.86
54144;BME280;40050;47.324;18.792;2023-02-10T06:25:54;1025.71;;;-6.39;63.98
54144;BME280;40050;47.324;18.792;2023-02-10T06:27:56;1025.76;;;-6.37;64.17
54144;BME280;40050;47.324;18.792;2023-02-10T06:29:59;1025.66;;;-6.37;64.29
54144;BME280;40050;47.324;18.792;2023-02-10T06:32:01;1025.49;;;-6.46;64.42
54144;BME280;40050;47.324;18.792;2023-02-10T06:34:04;1025.63;;;-6.53;65.16
54144;BME280;40050;47.324;18.792;2023-02-10T06:36:07;1025.82;;;-6.58;65.66
54144;BME280;40050;47.324;18.792;2023-02-10T06:38:09;1025.87;;;-6.58;65.99
54144;BME280;40050;47.324;18.792;2023-02-10T06:40:12;1025.87;;;-6.51;66.32
54144;BME280;40050;47.324;18.792;2023-02-10T06:42:14;1025.82;;;-6.47;67.49
54144;BME280;40050;47.324;18.792;2023-02-10T06:44:17;1025.96;;;-6.36;67.46
54144;BME280;40050;47.324;18.792;2023-02-10T06:46:19;1026.12;;;-6.28;67.39
54144;BME280;40050;47.324;18.792;2023-02-10T06:48:22;1026.12;;;-6.21;67.17
54144;BME280;40050;47.324;18.792;2023-02-10T06:50:24;1026.19;;;-6.09;67.01
54144;BME280;40050;47.324;18.792;2023-02-10T06:52:27;1026.16;;;-6.03;66.84
54144;BME280;40050;47.324;18.792;2023-02-10T06:54:29;1026.29;;;-5.96;66.82
54144;BME280;40050;47.324;18.792;2023-02-10T06:56:32;1026.32;;;-5.89;66.79
54144;BME280;40050;47.324;18.792;2023-02-10T06:58:34;1026.35;;;-5.84;66.86
54144;BME280;40050;47.324;18.792;2023-02-10T07:00:37;1026.45;;;-5.82;67.07
54144;BME280;40050;47.324;18.792;2023-02-10T07:02:39;1026.39;;;-5.86;67.41
54144;BME280;40050;47.324;18.792;2023-02-10T07:04:42;1026.49;;;-5.75;67.47
54144;BME280;40050;47.324;18.792;2023-02-10T07:06:44;1026.42;;;-5.69;67.42
54144;BME280;40050;47.324;18.792;2023-02-10T07:08:47;1026.42;;;-5.61;67.42
54144;BME280;40050;47.324;18.792;2023-02-10T07:10:49;1026.32;;;-5.62;67.55
54144;BME280;40050;47.324;18.792;2023-02-10T07:12:52;1026.27;;;-5.61;67.85
54144;BME280;40050;47.324;18.792;2023-02-10T07:14:54;1026.17;;;-5.53;68.01
54144;BME280;40050;47.324;18.792;2023-02-10T07:16:57;1026.17;;;-5.37;68.07
54144;BME280;40050;47.324;18.792;2023-02-10T07:18:59;1026.20;;;-5.32;68.20
54144;BME280;40050;47.324;18.792;2023-02-10T07:21:02;1026.19;;;-5.34;68.48
54144;BME280;40050;47.324;18.792;2023-02-10T07:23:04;1026.19;;;-5.35;68.83
54144;BME280;40050;47.324;18.792;2023-02-10T07:25:07;1026.30;;;-5.28;68.93
54144;BME280;40050;47.324;18.792;2023-02-10T07:27:09;1026.17;;;-5.31;68.92
54144;BME280;40050;47.324;18.792;2023-02-10T07:29:11;1026.19;;;-5.12;69.00
54144;BME280;40050;47.324;18.792;2023-02-10T07:31:14;1026.23;;;-4.94;69.08
54144;BME280;40050;47.324;18.792;2023-02-10T07:33:16;1026.26;;;-4.84;68.90
54144;BME280;40050;47.324;18.792;2023-02-10T07:35:19;1026.27;;;-4.78;69.15
54144;BME280;40050;47.324;18.792;2023-02-10T07:37:21;1026.36;;;-4.64;69.02
54144;BME280;40050;47.324;18.792;2023-02-10T07:39:24;1026.32;;;-4.55;68.96
54144;BME280;40050;47.324;18.792;2023-02-10T07:41:26;1026.17;;;-4.48;69.11
54144;BME280;40050;47.324;18.792;2023-02-10T07:43:29;1026.23;;;-4.42;69.31
54144;BME280;40050;47.324;18.792;2023-02-10T07:45:31;1026.23;;;-4.31;69.51
54144;BME280;40050;47.324;18.792;2023-02-10T07:47:34;1026.29;;;-4.20;69.72
54144;BME280;40050;47.324;18.792;2023-02-10T07:49:36;1026.24;;;-4.00;69.71
54144;BME280;40050;47.324;18.792;2023-02-10T07:51:39;1026.14;;;-3.88;69.76
54144;BME280;40050;47.324;18.792;2023-02-10T07:53:41;1026.20;;;-3.74;69.82
54144;BME280;40050;47.324;18.792;2023-02-10T07:55:44;1026.14;;;-3.66;69.83
54144;BME280;40050;47.324;18.792;2023-02-10T07:57:46;1026.27;;;-3.48;69.84
54144;BME280;40050;47.324;18.792;2023-02-10T07:59:48;1026.17;;;-3.33;69.74
54144;BME280;40050;47.324;18.792;2023-02-10T08:01:51;1026.16;;;-3.17;69.63
54144;BME280;40050;47.324;18.792;2023-02-10T08:03:53;1026.17;;;-2.99;69.60
54144;BME280;40050;47.324;18.792;2023-02-10T08:05:56;1026.25;;;-2.83;69.68
54144;BME280;40050;47.324;18.792;2023-02-10T08:07:58;1026.28;;;-2.73;69.85
54144;BME280;40050;47.324;18.792;2023-02-10T08:10:01;1026.35;;;-2.47;69.05
54144;BME280;40050;47.324;18.792;2023-02-10T08:12:03;1026.33;;;-2.31;68.94
54144;BME280;40050;47.324;18.792;2023-02-10T08:14:06;1026.34;;;-2.09;69.13
54144;BME280;40050;47.324;18.792;2023-02-10T08:16:08;1026.33;;;-1.88;68.72
54144;BME280;40050;47.324;18.792;2023-02-10T08:18:11;1026.28;;;-1.73;68.64
54144;BME280;40050;47.324;18.792;2023-02-10T08:20:13;1026.32;;;-1.53;68.40
54144;BME280;40050;47.324;18.792;2023-02-10T08:22:16;1026.31;;;-1.30;68.02
54144;BME280;40050;47.324;18.792;2023-02-10T08:24:18;1026.40;;;-1.10;67.42
54144;BME280;40050;47.324;18.792;2023-02-10T08:26:21;1026.35;;;-0.93;67.28
54144;BME280;40050;47.324;18.792;2023-02-10T08:28:23;1026.42;;;-0.68;67.09
54144;BME280;40050;47.324;18.792;2023-02-10T08:30:26;1026.39;;;-0.41;67.07
54144;BME280;40050;47.324;18.792;2023-02-10T08:32:28;1026.41;;;-0.25;66.52
54144;BME280;40050;47.324;18.792;2023-02-10T08:34:32;1026.47;;;-0.07;66.09
54144;BME280;40050;47.324;18.792;2023-02-10T08:36:34;1026.46;;;0.06;65.77
54144;BME280;40050;47.324;18.792;2023-02-10T08:38:37;1026.45;;;0.24;65.62
54144;BME280;40050;47.324;18.792;2023-02-10T08:40:40;1026.41;;;0.53;65.56
54144;BME280;40050;47.324;18.792;2023-02-10T08:42:43;1026.36;;;0.70;64.75
54144;BME280;40050;47.324;18.792;2023-02-10T08:44:45;1026.39;;;0.96;64.65
54144;BME280;40050;47.324;18.792;2023-02-10T08:46:48;1026.31;;;1.17;63.82
54144;BME280;40050;47.324;18.792;2023-02-10T08:48:50;1026.30;;;1.33;63.58
54144;BME280;40050;47.324;18.792;2023-02-10T08:50:53;1026.34;;;1.53;63.31
54144;BME280;40050;47.324;18.792;2023-02-10T08:52:55;1026.39;;;1.77;62.78
54144;BME280;40050;47.324;18.792;2023-02-10T08:54:58;1026.40;;;2.01;62.68
54144;BME280;40050;47.324;18.792;2023-02-10T08:57:00;1026.43;;;2.27;62.12
54144;BME280;40050;47.324;18.792;2023-02-10T08:59:03;1026.38;;;2.42;61.67
54144;BME280;40050;47.324;18.792;2023-02-10T09:01:09;1026.38;;;2.58;60.36
54144;BME280;40050;47.324;18.792;2023-02-10T09:03:12;1026.44;;;2.71;60.58
54144;BME280;40050;47.324;18.792;2023-02-10T09:05:14;1026.48;;;2.84;60.05
54144;BME280;40050;47.324;18.792;2023-02-10T09:07:17;1026.48;;;2.95;59.74
54144;BME280;40050;47.324;18.792;2023-02-10T09:09:20;1026.46;;;3.06;59.35
54144;BME280;40050;47.324;18.792;2023-02-10T09:11:23;1026.48;;;3.22;59.07
54144;BME280;40050;47.324;18.792;2023-02-10T09:13:25;1026.49;;;3.30;58.72
54144;BME280;40050;47.324;18.792;2023-02-10T09:15:28;1026.42;;;3.44;58.07
54144;BME280;40050;47.324;18.792;2023-02-10T09:17:30;1026.32;;;3.52;57.93
54144;BME280;40050;47.324;18.792;2023-02-10T09:19:33;1026.25;;;3.60;57.22
54144;BME280;40050;47.324;18.792;2023-02-10T09:21:36;1026.31;;;3.79;57.20
54144;BME280;40050;47.324;18.792;2023-02-10T09:23:38;1026.35;;;4.02;55.72
54144;BME280;40050;47.324;18.792;2023-02-10T09:25:41;1026.30;;;3.97;54.82
54144;BME280;40050;47.324;18.792;2023-02-10T09:27:43;1026.28;;;4.11;55.91
54144;BME280;40050;47.324;18.792;2023-02-10T09:29:46;1026.30;;;4.26;55.40
54144;BME280;40050;47.324;18.792;2023-02-10T09:31:48;1026.29;;;4.00;53.34
54144;BME280;40050;47.324;18.792;2023-02-10T09:33:51;1026.28;;;3.98;54.77
54144;BME280;40050;47.324;18.792;2023-02-10T09:35:53;1026.30;;;3.87;53.52
54144;BME280;40050;47.324;18.792;2023-02-10T09:37:56;1026.25;;;3.92;54.62
54144;BME280;40050;47.324;18.792;2023-02-10T09:39:58;1026.20;;;4.12;55.03
54144;BME280;40050;47.324;18.792;2023-02-10T09:44:28;1026.21;;;4.47;54.42
54144;BME280;40050;47.324;18.792;2023-02-10T09:53:41;1026.31;;;5.08;52.31
54144;BME280;40050;47.324;18.792;2023-02-10T09:55:45;1026.37;;;5.18;52.85
54144;BME280;40050;47.324;18.792;2023-02-10T09:57:49;1026.33;;;5.34;52.22
54144;BME280;40050;47.324;18.792;2023-02-10T09:59:54;1026.29;;;5.43;51.86
54144;BME280;40050;47.324;18.792;2023-02-10T10:01:59;1026.17;;;5.47;51.88
54144;BME280;40050;47.324;18.792;2023-02-10T10:04:04;1026.28;;;5.68;51.29
54144;BME280;40050;47.324;18.792;2023-02-10T10:06:17;1026.29;;;5.76;51.32
54144;BME280;40050;47.324;18.792;2023-02-10T10:08:25;1026.22;;;5.86;50.97
54144;BME280;40050;47.324;18.792;2023-02-10T10:10:34;1026.18;;;5.89;50.21
54144;BME280;40050;47.324;18.792;2023-02-10T10:12:38;1026.17;;;5.85;49.58
54144;BME280;40050;47.324;18.792;2023-02-10T10:14:41;1026.18;;;5.73;49.64
54144;BME280;40050;47.324;18.792;2023-02-10T10:21:29;1026.11;;;6.12;48.30
54144;BME280;40050;47.324;18.792;2023-02-10T10:23:47;1026.09;;;6.20;48.46
54144;BME280;40050;47.324;18.792;2023-02-10T10:26:12;1025.85;;;6.20;48.55
54144;BME280;40050;47.324;18.792;2023-02-10T10:30:45;1026.02;;;6.22;46.57
54144;BME280;40050;47.324;18.792;2023-02-10T10:32:48;1026.04;;;6.24;47.81
54144;BME280;40050;47.324;18.792;2023-02-10T10:34:54;1025.97;;;6.34;48.11
54144;BME280;40050;47.324;18.792;2023-02-10T10:36:58;1025.98;;;6.47;47.72
54144;BME280;40050;47.324;18.792;2023-02-10T10:39:03;1025.97;;;6.60;47.46
54144;BME280;40050;47.324;18.792;2023-02-10T10:41:12;1025.98;;;6.65;47.00
54144;BME280;40050;47.324;18.792;2023-02-10T10:43:20;1025.92;;;6.77;47.04
54144;BME280;40050;47.324;18.792;2023-02-10T10:45:33;1025.93;;;6.87;47.25
54144;BME280;40050;47.324;18.792;2023-02-10T10:47:46;1025.91;;;6.82;46.47
54144;BME280;40050;47.324;18.792;2023-02-10T10:49:49;1025.94;;;6.52;45.28
54144;BME280;40050;47.324;18.792;2023-02-10T10:51:52;1025.98;;;6.57;46.07
54144;BME280;40050;47.324;18.792;2023-02-10T10:53:55;1025.90;;;6.58;45.49
54144;BME280;40050;47.324;18.792;2023-02-10T10:55:58;1025.84;;;6.42;44.55
54144;BME280;40050;47.324;18.792;2023-02-10T10:58:03;1025.78;;;6.38;45.12
54144;BME280;40050;47.324;18.792;2023-02-10T11:00:25;1025.77;;;6.48;45.20
54144;BME280;40050;47.324;18.792;2023-02-10T11:02:28;1025.67;;;6.33;43.37
54144;BME280;40050;47.324;18.792;2023-02-10T11:04:31;1025.60;;;6.06;44.31
54144;BME280;40050;47.324;18.792;2023-02-10T11:06:34;1025.62;;;6.16;44.25
54144;BME280;40050;47.324;18.792;2023-02-10T11:08:38;1025.58;;;6.22;44.02
54144;BME280;40050;47.324;18.792;2023-02-10T11:10:48;1025.56;;;6.15;44.06
54144;BME280;40050;47.324;18.792;2023-02-10T11:12:51;1025.48;;;6.00;43.69
54144;BME280;40050;47.324;18.792;2023-02-10T11:14:54;1025.39;;;5.73;44.56
54144;BME280;40050;47.324;18.792;2023-02-10T11:16:57;1025.32;;;5.91;44.78
54144;BME280;40050;47.324;18.792;2023-02-10T11:19:00;1025.36;;;6.07;44.88
54144;BME280;40050;47.324;18.792;2023-02-10T11:21:04;1025.29;;;6.17;44.56
54144;BME280;40050;47.324;18.792;2023-02-10T11:23:14;1025.35;;;6.30;43.83
54144;BME280;40050;47.324;18.792;2023-02-10T11:27:38;1025.38;;;5.83;43.98
54144;BME280;40050;47.324;18.792;2023-02-10T11:29:54;1025.39;;;5.51;44.30
54144;BME280;40050;47.324;18.792;2023-02-10T11:31:57;1025.36;;;5.59;44.41